createdAt,value
2023-05-11T00:00:37.081Z,72.87
2023-05-11T00:01:38.938Z,72.76
2023-05-11T00:02:40.973Z,72.58
2023-05-11T00:03:43.319Z,72.37
2023-05-11T00:04:45.218Z,73.47
2023-05-11T00:05:49.828Z,72.82
2023-05-11T00:06:51.578Z,72.33
2023-05-11T00:07:53.324Z,72.55
2023-05-11T00:08:55.402Z,73.07
2023-05-11T00:09:57.155Z,72.70
2023-05-11T00:11:00.802Z,72.74
2023-05-11T00:12:02.861Z,73.30
2023-05-11T00:13:04.631Z,73.46
2023-05-11T00:14:06.630Z,73.47
2023-05-11T00:15:09.167Z,73.23
2023-05-11T00:16:11.193Z,73.55
2023-05-11T00:17:13.306Z,73.45
2023-05-11T00:18:15.105Z,73.13
2023-05-11T00:19:16.817Z,73.24
2023-05-11T00:20:18.965Z,73.26
2023-05-11T00:21:22.810Z,73.86
2023-05-11T00:22:24.580Z,73.86
2023-05-11T00:23:26.371Z,73.74
2023-05-11T00:24:28.227Z,73.67
2023-05-11T00:25:30.456Z,73.59
2023-05-11T00:26:32.360Z,73.52
2023-05-11T00:27:34.186Z,73.99
2023-05-11T00:28:36.012Z,73.22
2023-05-11T00:29:37.790Z,73.37
2023-05-11T00:30:42.287Z,73.60
2023-05-11T00:31:48.001Z,73.17
2023-05-11T00:32:52.012Z,73.81
2023-05-11T00:33:54.791Z,73.96
2023-05-11T00:34:56.594Z,73.74
2023-05-11T00:35:58.533Z,74.12
2023-05-11T00:37:00.385Z,74.29
2023-05-11T00:38:02.117Z,73.71
2023-05-11T00:39:04.085Z,74.29
2023-05-11T00:40:07.434Z,73.37
2023-05-11T00:41:09.223Z,74.20
2023-05-11T00:42:11.402Z,73.52
2023-05-11T00:43:13.217Z,73.57
2023-05-11T00:44:15.086Z,73.96
2023-05-11T00:45:17.093Z,74.26
2023-05-11T00:46:18.945Z,73.95
2023-05-11T00:47:20.756Z,74.54
2023-05-11T00:48:22.762Z,74.32
2023-05-11T00:49:24.547Z,74.52
2023-05-11T00:50:27.093Z,74.14
2023-05-11T00:51:29.005Z,74.18
2023-05-11T00:52:30.882Z,74.22
2023-05-11T00:53:32.993Z,74.89
2023-05-11T00:54:36.297Z,75.16
2023-05-11T00:55:38.403Z,75.13
2023-05-11T00:56:41.111Z,74.65
2023-05-11T00:57:43.549Z,75.01
2023-05-11T00:58:45.869Z,74.88
2023-05-11T00:59:49.857Z,75.23
2023-05-11T01:00:51.725Z,75.21
2023-05-11T01:01:53.802Z,75.45
2023-05-11T01:02:56.271Z,75.56
2023-05-11T01:03:58.452Z,75.92
2023-05-11T01:05:01.793Z,76.07
2023-05-11T01:06:42.483Z,76.01
2023-05-11T01:08:12.430Z,76.52
2023-05-11T01:09:32.300Z,76.65
2023-05-11T01:11:08.271Z,76.61
2023-05-11T01:12:46.169Z,76.10
2023-05-11T01:14:26.172Z,76.41
2023-05-11T01:15:50.356Z,76.03
2023-05-11T01:17:03.493Z,76.20
2023-05-11T01:18:42.449Z,76.24
2023-05-11T01:19:57.265Z,77.01
2023-05-11T01:21:02.459Z,76.52
2023-05-11T01:22:53.128Z,76.68
2023-05-11T01:24:53.510Z,76.53
2023-05-11T01:26:27.233Z,77.69
2023-05-11T01:28:15.363Z,77.28
2023-05-11T01:29:59.231Z,77.97
2023-05-11T01:31:13.655Z,77.52
2023-05-11T01:32:29.024Z,77.66
2023-05-11T01:33:40.836Z,77.24
2023-05-11T01:34:46.235Z,77.35
2023-05-11T01:36:00.540Z,77.18
2023-05-11T01:37:22.876Z,77.46
2023-05-11T01:38:29.427Z,77.53
2023-05-11T01:39:39.856Z,77.14
2023-05-11T01:40:51.505Z,77.19
2023-05-11T01:41:58.301Z,77.63
2023-05-11T01:43:18.761Z,76.68
2023-05-11T01:44:30.813Z,77.59
2023-05-11T01:45:39.388Z,77.50
2023-05-11T01:46:41.211Z,77.64
2023-05-11T01:47:48.079Z,77.60
2023-05-11T01:48:54.687Z,77.89
2023-05-11T01:49:59.043Z,78.10
2023-05-11T01:51:03.560Z,76.93
2023-05-11T01:52:08.538Z,77.15
2023-05-11T01:53:13.675Z,77.73
2023-05-11T01:54:18.921Z,77.28
2023-05-11T01:55:24.761Z,78.12
2023-05-11T01:56:28.913Z,77.80
2023-05-11T01:57:33.352Z,78.22
2023-05-11T01:58:38.773Z,77.73
2023-05-11T01:59:41.209Z,78.05
2023-05-11T02:00:45.227Z,78.48
2023-05-11T02:01:47.930Z,78.01
2023-05-11T02:02:50.519Z,77.74
2023-05-11T02:03:55.535Z,77.07
2023-05-11T02:05:00.909Z,76.81
2023-05-11T02:06:06.660Z,77.63
2023-05-11T02:07:13.072Z,77.37
2023-05-11T02:08:16.822Z,78.01
2023-05-11T02:09:21.491Z,77.74
2023-05-11T02:10:27.232Z,77.05
2023-05-11T02:11:32.220Z,77.66
2023-05-11T02:12:36.805Z,77.97
2023-05-11T02:13:45.394Z,77.32
2023-05-11T02:14:51.193Z,77.57
2023-05-11T02:15:58.614Z,77.72
2023-05-11T02:17:03.508Z,78.61
2023-05-11T02:18:15.598Z,77.63
2023-05-11T02:19:19.572Z,78.22
2023-05-11T02:20:21.936Z,77.95
2023-05-11T02:21:27.656Z,78.51
2023-05-11T02:22:32.159Z,77.90
2023-05-11T02:23:34.795Z,78.14
2023-05-11T02:24:37.932Z,78.17
2023-05-11T02:25:43.064Z,78.41
2023-05-11T02:26:45.034Z,77.89
2023-05-11T02:27:46.882Z,77.96
2023-05-11T02:28:48.879Z,77.92
2023-05-11T02:29:50.935Z,78.05
2023-05-11T02:30:59.502Z,77.55
2023-05-11T02:32:09.098Z,78.82
2023-05-11T02:33:29.779Z,78.14
2023-05-11T02:34:41.742Z,77.96
2023-05-11T02:35:46.440Z,78.39
2023-05-11T02:36:53.182Z,78.49
2023-05-11T02:38:01.411Z,78.19
2023-05-11T02:39:12.551Z,78.73
2023-05-11T02:40:22.484Z,78.17
2023-05-11T02:41:30.077Z,78.67
2023-05-11T02:42:40.033Z,78.43
2023-05-11T02:43:54.033Z,78.56
2023-05-11T02:45:05.017Z,78.80
2023-05-11T02:46:18.979Z,78.58
2023-05-11T02:47:27.449Z,78.83
2023-05-11T02:48:39.725Z,78.91
2023-05-11T02:49:44.616Z,78.80
2023-05-11T02:50:49.092Z,78.98
2023-05-11T02:51:53.662Z,78.89
2023-05-11T02:53:01.399Z,78.96
2023-05-11T02:54:10.642Z,79.47
2023-05-11T02:55:17.385Z,79.33
2023-05-11T02:56:20.112Z,77.83
2023-05-11T02:57:24.648Z,78.21
2023-05-11T02:58:27.152Z,78.14
2023-05-11T02:59:30.776Z,77.41
2023-05-11T03:00:32.805Z,77.60
2023-05-11T03:01:35.664Z,77.16
2023-05-11T03:02:37.732Z,77.65
2023-05-11T03:03:39.810Z,77.72
2023-05-11T03:04:42.125Z,77.63
2023-05-11T03:05:43.878Z,77.60
2023-05-11T03:06:45.911Z,77.00
2023-05-11T03:07:47.977Z,77.70
2023-05-11T03:08:50.102Z,77.61
2023-05-11T03:09:53.000Z,76.99
2023-05-11T03:10:57.497Z,77.37
2023-05-11T03:12:00.933Z,76.68
2023-05-11T03:13:05.455Z,76.25
2023-05-11T03:14:08.329Z,76.79
2023-05-11T03:15:12.537Z,75.77
2023-05-11T03:16:15.739Z,75.48
2023-05-11T03:17:21.232Z,75.52
2023-05-11T03:18:24.120Z,75.79
2023-05-11T03:19:29.186Z,75.11
2023-05-11T03:20:33.619Z,74.80
2023-05-11T03:21:39.551Z,74.57
2023-05-11T03:22:42.333Z,74.62
2023-05-11T03:23:48.648Z,74.52
2023-05-11T03:24:52.257Z,75.13
2023-05-11T03:25:56.134Z,74.02
2023-05-11T03:26:59.906Z,74.78
2023-05-11T03:28:04.224Z,74.24
2023-05-11T03:29:08.919Z,73.80
2023-05-11T03:30:15.991Z,73.61
2023-05-11T03:31:18.984Z,73.48
2023-05-11T03:32:20.817Z,73.95
2023-05-11T03:33:23.217Z,74.46
2023-05-11T03:34:25.063Z,74.64
2023-05-11T03:35:31.097Z,73.73
2023-05-11T03:36:33.679Z,74.05
2023-05-11T03:37:38.804Z,74.31
2023-05-11T03:38:40.960Z,74.00
2023-05-11T03:39:48.087Z,73.50
2023-05-11T03:40:54.721Z,73.63
2023-05-11T03:41:58.553Z,73.93
2023-05-11T03:43:05.303Z,73.80
2023-05-11T03:44:10.829Z,74.27
2023-05-11T03:45:18.187Z,74.63
2023-05-11T03:46:23.028Z,74.82
2023-05-11T03:47:28.555Z,74.31
2023-05-11T03:48:32.151Z,73.96
2023-05-11T03:49:38.022Z,74.47
2023-05-11T03:50:41.225Z,74.02
2023-05-11T03:51:44.431Z,74.13
2023-05-11T03:52:46.333Z,74.15
2023-05-11T03:53:48.118Z,74.12
2023-05-11T03:54:50.536Z,73.85
2023-05-11T03:55:52.924Z,73.60
2023-05-11T03:56:54.734Z,73.42
2023-05-11T03:57:56.618Z,73.49
2023-05-11T03:58:58.910Z,73.66
2023-05-11T04:00:00.728Z,73.86
2023-05-11T04:01:02.557Z,74.11
2023-05-11T04:02:04.385Z,73.38
2023-05-11T04:03:07.883Z,73.23
2023-05-11T04:04:09.963Z,73.34
2023-05-11T04:05:13.070Z,73.74
2023-05-11T04:06:16.149Z,74.06
2023-05-11T04:07:18.122Z,73.49
2023-05-11T04:08:19.961Z,73.78
2023-05-11T04:09:21.709Z,73.54
2023-05-11T04:10:23.517Z,72.87
2023-05-11T04:11:27.404Z,73.23
2023-05-11T04:12:29.223Z,73.03
2023-05-11T04:13:30.934Z,73.10
2023-05-11T04:14:32.747Z,72.97
2023-05-11T04:15:35.810Z,72.74
2023-05-11T04:16:37.669Z,72.66
2023-05-11T04:17:39.629Z,72.38
2023-05-11T04:18:41.560Z,72.64
2023-05-11T04:19:43.401Z,72.30
2023-05-11T04:20:45.229Z,72.23
2023-05-11T04:21:47.039Z,72.24
2023-05-11T04:22:48.898Z,72.33
2023-05-11T04:23:50.649Z,72.01
2023-05-11T04:24:52.442Z,72.21
2023-05-11T04:25:55.954Z,71.82
2023-05-11T04:26:57.831Z,71.66
2023-05-11T04:27:59.579Z,71.13
2023-05-11T04:29:01.442Z,71.71
2023-05-11T04:30:03.295Z,71.60
2023-05-11T04:31:05.258Z,71.06
2023-05-11T04:32:07.045Z,71.17
2023-05-11T04:33:09.071Z,70.88
2023-05-11T04:34:10.868Z,70.83
2023-05-11T04:35:12.719Z,70.97
2023-05-11T04:36:14.531Z,71.07
2023-05-11T04:37:16.383Z,70.98
2023-05-11T04:38:19.871Z,70.62
2023-05-11T04:39:21.641Z,70.70
2023-05-11T04:40:23.654Z,70.08
2023-05-11T04:41:26.000Z,70.00
2023-05-11T04:42:27.789Z,70.56
2023-05-11T04:43:29.589Z,70.38
2023-05-11T04:44:31.338Z,70.58
2023-05-11T04:45:33.071Z,70.14
2023-05-11T04:46:35.450Z,70.67
2023-05-11T04:47:37.331Z,70.25
2023-05-11T04:48:39.131Z,69.97
2023-05-11T04:49:40.896Z,70.67
2023-05-11T04:50:43.118Z,69.83
2023-05-11T04:51:44.930Z,70.13
2023-05-11T04:52:46.643Z,69.75
2023-05-11T04:53:48.380Z,70.02
2023-05-11T04:54:50.175Z,69.59
2023-05-11T04:55:51.937Z,69.60
2023-05-11T04:56:53.711Z,69.11
2023-05-11T04:57:55.538Z,68.34
2023-05-11T04:58:57.385Z,68.33
2023-05-11T04:59:59.198Z,68.70
2023-05-11T05:01:01.009Z,68.88
2023-05-11T05:02:02.853Z,68.29
2023-05-11T05:03:04.614Z,68.20
2023-05-11T05:04:06.705Z,68.26
2023-05-11T05:05:09.442Z,68.74
2023-05-11T05:06:11.271Z,68.59
2023-05-11T05:07:13.036Z,68.15
2023-05-11T05:08:15.390Z,67.69
2023-05-11T05:09:17.718Z,67.54
2023-05-11T05:10:19.630Z,67.29
2023-05-11T05:11:21.718Z,67.71
2023-05-11T05:12:23.887Z,66.86
2023-05-11T05:13:25.958Z,67.25
2023-05-11T05:14:27.687Z,66.97
2023-05-11T05:15:29.484Z,66.50
2023-05-11T05:16:32.582Z,67.13
2023-05-11T05:17:34.823Z,67.52
2023-05-11T05:18:36.997Z,67.12
2023-05-11T05:19:38.821Z,67.24
2023-05-11T05:20:40.682Z,66.70
2023-05-11T05:21:42.592Z,67.24
2023-05-11T05:22:44.377Z,66.96
2023-05-11T05:23:46.176Z,66.88
2023-05-11T05:24:47.929Z,66.35
2023-05-11T05:25:49.692Z,65.84
2023-05-11T05:26:51.440Z,66.00
2023-05-11T05:27:53.295Z,65.96
2023-05-11T05:28:55.088Z,65.77
2023-05-11T05:29:56.906Z,66.34
2023-05-11T05:30:58.674Z,66.59
2023-05-11T05:32:00.428Z,65.87
2023-05-11T05:33:02.249Z,66.04
2023-05-11T05:34:04.042Z,66.17
2023-05-11T05:35:06.497Z,65.61
2023-05-11T05:36:08.690Z,65.92
2023-05-11T05:37:10.468Z,66.08
2023-05-11T05:38:12.547Z,65.93
2023-05-11T05:39:14.320Z,65.74
2023-05-11T05:40:16.394Z,65.38
2023-05-11T05:41:18.957Z,65.25
2023-05-11T05:43:24.382Z,65.55
2023-05-11T05:44:26.198Z,65.25
2023-05-11T05:45:28.013Z,65.35
2023-05-11T05:46:29.785Z,64.37
2023-05-11T05:47:31.688Z,64.57
2023-05-11T05:48:33.502Z,64.74
2023-05-11T05:49:35.285Z,64.47
2023-05-11T05:50:37.667Z,64.30
2023-05-11T05:51:39.528Z,64.21
2023-05-11T05:52:41.813Z,64.13
2023-05-11T05:53:43.733Z,64.15
2023-05-11T05:54:45.485Z,63.37
2023-05-11T05:55:47.250Z,63.19
2023-05-11T05:56:50.369Z,63.09
2023-05-11T05:57:52.226Z,63.27
2023-05-11T05:58:53.959Z,62.68
2023-05-11T05:59:55.903Z,62.26
2023-05-11T06:00:58.169Z,62.87
2023-05-11T06:01:59.923Z,62.46
2023-05-11T06:03:01.903Z,62.16
2023-05-11T06:04:03.911Z,61.78
2023-05-11T06:05:06.924Z,61.57
2023-05-11T06:06:08.706Z,61.73
2023-05-11T06:07:10.508Z,60.77
2023-05-11T06:08:12.250Z,60.53
2023-05-11T06:09:14.059Z,60.80
2023-05-11T06:10:16.023Z,60.21
2023-05-11T06:11:17.776Z,59.94
2023-05-11T06:12:19.670Z,59.39
2023-05-11T06:13:21.895Z,60.06
2023-05-11T06:14:23.709Z,59.70
2023-05-11T06:15:25.975Z,58.67
2023-05-11T06:16:28.186Z,59.00
2023-05-11T06:17:30.247Z,58.22
2023-05-11T06:18:32.094Z,57.60
2023-05-11T06:19:33.855Z,58.06
2023-05-11T06:20:35.813Z,57.78
2023-05-11T06:21:37.642Z,56.64
2023-05-11T06:22:39.497Z,56.69
2023-05-11T06:23:41.293Z,56.69
2023-05-11T06:24:43.100Z,56.07
2023-05-11T06:25:44.885Z,55.96
2023-05-11T06:26:46.674Z,54.01
2023-05-11T06:27:48.508Z,55.12
2023-05-11T06:28:50.851Z,54.87
2023-05-11T06:29:52.745Z,55.10
2023-05-11T06:31:00.020Z,54.04
2023-05-11T06:32:01.836Z,54.76
2023-05-11T06:33:03.777Z,54.61
2023-05-11T06:34:05.598Z,53.76
2023-05-11T06:35:07.991Z,54.20
2023-05-11T06:36:10.188Z,53.51
2023-05-11T06:37:11.922Z,53.92
2023-05-11T06:38:13.688Z,53.05
2023-05-11T06:39:15.776Z,53.11
2023-05-11T06:40:17.805Z,53.63
2023-05-11T06:41:19.723Z,53.17
2023-05-11T06:42:26.553Z,53.13
2023-05-11T06:43:28.473Z,52.90
2023-05-11T06:44:30.458Z,52.34
2023-05-11T06:45:32.333Z,52.05
2023-05-11T06:46:34.405Z,51.92
2023-05-11T06:47:37.056Z,51.61
2023-05-11T06:48:39.249Z,51.13
2023-05-11T06:49:44.218Z,50.34
2023-05-11T06:50:46.367Z,50.92
2023-05-11T06:51:48.705Z,50.12
2023-05-11T06:52:50.540Z,50.31
2023-05-11T06:53:52.381Z,50.66
2023-05-11T06:54:54.191Z,49.82
2023-05-11T06:55:56.441Z,49.13
2023-05-11T06:56:58.260Z,48.96
2023-05-11T06:57:59.993Z,48.22
2023-05-11T06:59:01.758Z,47.87
2023-05-11T07:00:04.419Z,47.39
2023-05-11T07:01:07.775Z,47.78
2023-05-11T07:02:10.128Z,47.31
2023-05-11T07:03:12.120Z,47.13
2023-05-11T07:04:13.957Z,47.12
2023-05-11T07:05:15.870Z,46.24
2023-05-11T07:06:17.650Z,46.42
2023-05-11T07:07:19.404Z,47.78
2023-05-11T07:08:21.362Z,47.06
2023-05-11T07:09:23.202Z,46.79
2023-05-11T07:10:25.128Z,47.18
2023-05-11T07:11:27.784Z,46.86
2023-05-11T07:12:29.572Z,46.64
2023-05-11T07:13:31.428Z,46.88
2023-05-11T07:14:33.481Z,46.83
2023-05-11T07:15:35.295Z,46.04
2023-05-11T07:16:39.817Z,46.32
2023-05-11T07:17:41.805Z,45.48
2023-05-11T07:18:43.591Z,45.49
2023-05-11T07:19:45.480Z,44.97
2023-05-11T07:20:49.967Z,45.16
2023-05-11T07:21:52.224Z,44.88
2023-05-11T07:23:01.685Z,44.32
2023-05-11T07:24:04.017Z,44.42
2023-05-11T07:25:06.810Z,43.74
2023-05-11T07:26:09.268Z,43.44
2023-05-11T07:27:11.406Z,43.05
2023-05-11T07:28:13.185Z,42.68
2023-05-11T07:29:14.980Z,42.27
2023-05-11T07:30:18.731Z,43.28
2023-05-11T07:31:21.065Z,42.61
2023-05-11T07:32:23.082Z,43.51
2023-05-11T07:33:24.972Z,43.52
2023-05-11T07:34:26.710Z,42.94
2023-05-11T07:35:28.948Z,43.29
2023-05-11T07:36:30.821Z,42.90
2023-05-11T07:37:32.562Z,41.34
2023-05-11T07:38:34.421Z,40.76
2023-05-11T07:39:36.294Z,40.54
2023-05-11T07:40:38.035Z,40.36
2023-05-11T07:41:39.822Z,39.93
2023-05-11T07:42:41.605Z,39.62
2023-05-11T07:43:43.395Z,39.95
2023-05-11T07:44:45.244Z,39.85
2023-05-11T07:45:47.212Z,39.33
2023-05-11T07:46:49.106Z,39.47
2023-05-11T07:47:51.006Z,39.90
2023-05-11T07:49:03.474Z,40.14
2023-05-11T07:50:09.610Z,39.47
2023-05-11T07:51:11.419Z,39.83
2023-05-11T07:52:14.122Z,40.13
2023-05-11T07:53:16.612Z,40.01
2023-05-11T07:54:20.932Z,39.33
2023-05-11T07:55:26.624Z,39.50
2023-05-11T07:56:28.418Z,39.29
2023-05-11T07:57:30.288Z,38.88
2023-05-11T07:58:32.768Z,38.73
2023-05-11T07:59:34.591Z,38.54
2023-05-11T08:00:36.547Z,38.53
2023-05-11T08:01:38.602Z,38.34
2023-05-11T08:02:40.510Z,37.83
2023-05-11T08:03:42.482Z,37.72
2023-05-11T08:04:44.876Z,36.62
2023-05-11T08:05:47.165Z,35.96
2023-05-11T08:06:49.053Z,35.45
2023-05-11T08:07:50.820Z,35.47
2023-05-11T08:08:52.627Z,35.75
2023-05-11T08:09:54.426Z,36.03
2023-05-11T08:10:56.732Z,35.81
2023-05-11T08:12:01.478Z,36.34
2023-05-11T08:13:03.605Z,35.89
2023-05-11T08:14:05.425Z,35.90
2023-05-11T08:15:08.178Z,35.90
2023-05-11T08:16:10.067Z,36.12
2023-05-11T08:17:11.919Z,35.51
2023-05-11T08:18:13.858Z,35.83
2023-05-11T08:19:15.696Z,35.36
2023-05-11T08:20:17.703Z,35.26
2023-05-11T08:21:19.552Z,34.69
2023-05-11T08:22:21.316Z,34.94
2023-05-11T08:23:23.154Z,35.46
2023-05-11T08:24:24.951Z,35.27
2023-05-11T08:25:26.747Z,35.69
2023-05-11T08:26:28.499Z,35.93
2023-05-11T08:27:30.275Z,35.91
2023-05-11T08:28:32.162Z,36.79
2023-05-11T08:29:33.884Z,36.62
2023-05-11T08:30:35.749Z,36.53
2023-05-11T08:31:37.551Z,36.26
2023-05-11T08:32:57.211Z,36.59
2023-05-11T08:34:00.273Z,36.64
2023-05-11T08:35:04.319Z,36.05
2023-05-11T08:36:07.349Z,36.00
2023-05-11T08:37:09.285Z,35.63
2023-05-11T08:38:11.075Z,35.50
2023-05-11T08:39:12.966Z,34.63
2023-05-11T08:40:15.038Z,34.13
2023-05-11T08:41:16.948Z,33.73
2023-05-11T08:42:23.727Z,34.26
2023-05-11T08:43:28.934Z,33.40
2023-05-11T08:44:34.804Z,33.07
2023-05-11T08:45:40.457Z,32.82
2023-05-11T08:46:48.733Z,32.88
2023-05-11T08:47:50.754Z,32.73
2023-05-11T08:48:53.105Z,32.84
2023-05-11T08:49:55.035Z,33.07
2023-05-11T08:50:57.350Z,33.26
2023-05-11T08:52:04.463Z,33.44
2023-05-11T08:53:08.068Z,33.42
2023-05-11T08:54:09.902Z,33.39
2023-05-11T08:55:12.739Z,33.24
2023-05-11T08:56:17.212Z,33.33
2023-05-11T08:57:20.673Z,33.70
2023-05-11T08:58:23.350Z,33.80
2023-05-11T08:59:28.788Z,34.55
2023-05-11T09:00:32.570Z,34.16
2023-05-11T09:01:37.362Z,33.46
2023-05-11T09:02:40.307Z,32.79
2023-05-11T09:03:43.503Z,33.42
2023-05-11T09:04:49.004Z,32.92
2023-05-11T09:05:53.006Z,33.27
2023-05-11T09:06:56.062Z,33.45
2023-05-11T09:08:04.225Z,33.11
2023-05-11T09:09:06.018Z,33.06
2023-05-11T09:10:10.060Z,33.51
2023-05-11T09:11:13.809Z,34.01
2023-05-11T09:12:17.359Z,34.10
2023-05-11T09:13:19.243Z,34.24
2023-05-11T09:14:27.095Z,33.97
2023-05-11T09:15:29.390Z,33.75
2023-05-11T09:16:37.256Z,33.88
2023-05-11T09:17:39.644Z,33.51
2023-05-11T09:18:49.628Z,33.77
2023-05-11T09:20:06.825Z,34.06
2023-05-11T09:21:08.617Z,33.77
2023-05-11T09:22:10.414Z,32.87
2023-05-11T09:23:20.075Z,33.23
2023-05-11T09:24:22.582Z,33.33
2023-05-11T09:25:27.212Z,33.57
2023-05-11T09:26:29.674Z,33.04
2023-05-11T09:27:32.277Z,32.90
2023-05-11T09:28:36.015Z,32.96
2023-05-11T09:29:38.052Z,33.36
2023-05-11T09:30:39.788Z,33.17
2023-05-11T09:31:47.310Z,33.29
2023-05-11T09:33:02.249Z,33.67
2023-05-11T09:34:23.679Z,34.41
2023-05-11T09:35:29.274Z,33.75
2023-05-11T09:36:32.009Z,34.52
2023-05-11T09:37:33.801Z,34.91
2023-05-11T09:38:35.757Z,34.18
2023-05-11T09:39:44.547Z,34.13
2023-05-11T09:41:00.894Z,33.61
2023-05-11T09:42:17.926Z,33.31
2023-05-11T09:43:27.444Z,33.07
2023-05-11T09:44:32.383Z,32.46
2023-05-11T09:45:50.022Z,33.00
2023-05-11T09:46:52.262Z,32.76
2023-05-11T09:47:54.168Z,32.87
2023-05-11T09:49:01.137Z,33.11
2023-05-11T09:50:18.025Z,32.41
2023-05-11T09:51:31.828Z,33.03
2023-05-11T09:52:33.622Z,32.68
2023-05-11T09:53:45.852Z,32.12
2023-05-11T09:54:51.968Z,32.03
2023-05-11T09:55:56.671Z,30.81
2023-05-11T09:57:00.268Z,31.20
2023-05-11T09:58:03.437Z,31.04
2023-05-11T09:59:05.475Z,31.28
2023-05-11T10:00:15.106Z,31.50
2023-05-11T10:01:29.753Z,31.47
2023-05-11T10:02:33.532Z,31.43
2023-05-11T10:03:51.760Z,31.83
2023-05-11T10:04:57.334Z,32.37
2023-05-11T10:06:01.322Z,32.94
2023-05-11T10:07:06.627Z,32.97
2023-05-11T10:08:08.422Z,33.12
2023-05-11T10:09:10.790Z,32.19
2023-05-11T10:10:13.970Z,32.10
2023-05-11T10:11:16.091Z,31.94
2023-05-11T10:12:23.828Z,32.04
2023-05-11T10:13:27.052Z,31.83
2023-05-11T10:14:32.096Z,32.37
2023-05-11T10:15:36.583Z,32.00
2023-05-11T10:16:44.209Z,32.93
2023-05-11T10:17:46.451Z,32.50
2023-05-11T10:18:49.027Z,32.75
2023-05-11T10:19:54.330Z,32.77
2023-05-11T10:20:58.590Z,32.32
2023-05-11T10:22:02.327Z,31.82
2023-05-11T10:23:05.846Z,32.14
2023-05-11T10:24:08.768Z,32.77
2023-05-11T10:25:11.639Z,32.68
2023-05-11T10:26:14.995Z,32.45
2023-05-11T10:27:17.105Z,32.58
2023-05-11T10:28:20.836Z,33.21
2023-05-11T10:29:24.224Z,33.12
2023-05-11T10:30:26.867Z,32.73
2023-05-11T10:31:30.071Z,32.91
2023-05-11T10:32:39.640Z,33.25
2023-05-11T10:33:42.773Z,32.79
2023-05-11T10:34:46.989Z,33.08
2023-05-11T10:35:52.076Z,33.12
2023-05-11T10:37:00.140Z,33.03
2023-05-11T10:38:02.148Z,32.64
2023-05-11T10:39:04.044Z,31.72
2023-05-11T10:40:07.579Z,32.45
2023-05-11T10:41:39.519Z,31.55
2023-05-11T10:43:06.228Z,30.86
2023-05-11T10:45:03.215Z,30.36
2023-05-11T10:46:44.210Z,30.42
2023-05-11T10:48:35.020Z,30.31
2023-05-11T10:50:33.357Z,30.16
2023-05-11T10:52:17.647Z,31.65
2023-05-11T10:53:48.561Z,32.50
2023-05-11T10:55:16.683Z,32.67
2023-05-11T10:56:47.265Z,33.01
2023-05-11T10:58:15.640Z,32.61
2023-05-11T11:00:14.187Z,33.17
2023-05-11T11:01:39.557Z,33.06
2023-05-11T11:02:42.553Z,33.62
2023-05-11T11:04:02.992Z,33.54
2023-05-11T11:05:10.183Z,34.29
2023-05-11T11:06:32.169Z,34.01
2023-05-11T11:08:03.802Z,33.46
2023-05-11T11:09:15.880Z,34.07
2023-05-11T11:10:39.495Z,33.39
2023-05-11T11:11:47.839Z,34.00
2023-05-11T11:13:08.798Z,34.28
2023-05-11T11:14:10.792Z,34.01
2023-05-11T11:15:12.604Z,34.22
2023-05-11T11:16:16.543Z,34.24
2023-05-11T11:17:18.475Z,34.20
2023-05-11T11:18:23.923Z,34.36
2023-05-11T11:19:31.589Z,34.51
2023-05-11T11:20:57.407Z,34.05
2023-05-11T11:22:01.714Z,34.65
2023-05-11T11:23:03.564Z,34.53
2023-05-11T11:24:05.662Z,33.75
2023-05-11T11:25:10.025Z,34.37
2023-05-11T11:26:15.616Z,34.27
2023-05-11T11:27:17.534Z,34.12
2023-05-11T11:28:19.858Z,33.71
2023-05-11T11:29:22.002Z,33.97
2023-05-11T11:30:30.444Z,33.83
2023-05-11T11:31:34.404Z,34.23
2023-05-11T11:32:36.363Z,34.12
2023-05-11T11:33:38.262Z,34.12
2023-05-11T11:34:40.196Z,33.55
2023-05-11T11:35:42.120Z,33.28
2023-05-11T11:36:58.372Z,33.18
2023-05-11T11:38:03.456Z,32.69
2023-05-11T11:39:05.548Z,33.07
2023-05-11T11:40:14.732Z,32.88
2023-05-11T11:41:33.895Z,33.40
2023-05-11T11:42:39.604Z,32.52
2023-05-11T11:43:47.258Z,32.03
2023-05-11T11:44:49.157Z,32.04
2023-05-11T11:46:02.781Z,31.89
2023-05-11T11:47:14.456Z,31.65
2023-05-11T11:48:35.603Z,32.92
2023-05-11T11:49:39.523Z,33.29
2023-05-11T11:50:44.642Z,33.69
2023-05-11T11:51:46.552Z,33.63
2023-05-11T11:52:48.346Z,33.67
2023-05-11T11:53:49.994Z,33.89
2023-05-11T11:54:51.795Z,33.83
2023-05-11T11:55:53.647Z,33.44
2023-05-11T11:56:55.564Z,33.81
2023-05-11T11:57:57.953Z,33.36
2023-05-11T11:59:02.964Z,33.92
2023-05-11T12:00:13.363Z,33.83
2023-05-11T12:01:20.009Z,33.08
2023-05-11T12:02:24.118Z,33.39
2023-05-11T12:03:26.436Z,33.46
2023-05-11T12:04:50.874Z,32.97
2023-05-11T12:06:01.726Z,32.61
2023-05-11T12:07:09.100Z,32.53
2023-05-11T12:08:16.373Z,32.46
2023-05-11T12:09:22.427Z,33.19
2023-05-11T12:10:24.317Z,32.62
2023-05-11T12:11:29.930Z,33.14
2023-05-11T12:12:32.260Z,33.17
2023-05-11T12:13:35.499Z,33.19
2023-05-11T12:14:42.029Z,32.88
2023-05-11T12:15:43.870Z,32.81
2023-05-11T12:17:05.191Z,32.26
2023-05-11T12:18:24.118Z,32.81
2023-05-11T12:19:25.878Z,32.67
2023-05-11T12:20:27.636Z,33.44
2023-05-11T12:21:32.164Z,33.00
2023-05-11T12:22:36.876Z,33.22
2023-05-11T12:23:38.686Z,33.14
2023-05-11T12:24:41.350Z,33.09
2023-05-11T12:25:43.156Z,33.05
2023-05-11T12:26:44.912Z,32.89
2023-05-11T12:28:03.214Z,32.70
2023-05-11T12:29:12.663Z,32.69
2023-05-11T12:30:34.600Z,31.94
2023-05-11T12:31:42.964Z,31.88
2023-05-11T12:32:44.802Z,32.38
2023-05-11T12:33:51.795Z,32.86
2023-05-11T12:35:04.247Z,32.52
2023-05-11T12:36:06.833Z,32.88
2023-05-11T12:37:08.739Z,32.92
2023-05-11T12:38:11.825Z,32.32
2023-05-11T12:39:24.374Z,32.88
2023-05-11T12:40:27.023Z,32.51
2023-05-11T12:41:28.882Z,32.24
2023-05-11T12:42:33.211Z,32.28
2023-05-11T12:43:36.804Z,32.64
2023-05-11T12:44:40.726Z,32.19
2023-05-11T12:45:42.710Z,32.22
2023-05-11T12:46:47.650Z,32.48
2023-05-11T12:47:52.739Z,32.04
2023-05-11T12:48:54.685Z,31.95
2023-05-11T12:49:56.658Z,31.50
2023-05-11T12:50:58.423Z,31.57
2023-05-11T12:52:02.338Z,31.98
2023-05-11T12:53:20.143Z,31.24
2023-05-11T12:54:37.571Z,31.44
2023-05-11T12:55:39.329Z,31.80
2023-05-11T12:56:48.700Z,31.30
2023-05-11T12:57:54.518Z,31.29
2023-05-11T12:58:56.243Z,31.69
2023-05-11T13:00:15.525Z,31.61
2023-05-11T13:01:25.174Z,31.15
2023-05-11T13:02:27.114Z,32.13
2023-05-11T13:03:34.073Z,32.17
2023-05-11T13:04:37.280Z,31.94
2023-05-11T13:05:39.851Z,31.66
2023-05-11T13:06:45.724Z,31.97
2023-05-11T13:07:48.579Z,31.68
2023-05-11T13:08:50.952Z,31.59
2023-05-11T13:10:01.214Z,31.94
2023-05-11T13:11:26.742Z,31.64
2023-05-11T13:12:34.144Z,31.63
2023-05-11T13:13:36.155Z,31.97
2023-05-11T13:14:39.541Z,31.38
2023-05-11T13:15:52.220Z,31.41
2023-05-11T13:16:54.481Z,31.80
2023-05-11T13:18:00.312Z,31.77
2023-05-11T13:19:05.630Z,31.42
2023-05-11T13:20:33.128Z,31.84
2023-05-11T13:21:34.970Z,31.45
2023-05-11T13:22:36.901Z,31.30
2023-05-11T13:23:38.730Z,31.15
2023-05-11T13:24:40.569Z,31.24
2023-05-11T13:25:54.234Z,31.18
2023-05-11T13:26:59.277Z,30.52
2023-05-11T13:28:01.619Z,30.31
2023-05-11T13:29:10.931Z,29.83
2023-05-11T13:30:14.154Z,29.93
2023-05-11T13:31:16.135Z,29.94
2023-05-11T13:32:18.030Z,30.52
2023-05-11T13:33:20.605Z,29.22
2023-05-11T13:34:22.612Z,29.01
2023-05-11T13:35:24.453Z,29.12
2023-05-11T13:36:26.311Z,29.31
2023-05-11T13:37:28.245Z,29.37
2023-05-11T13:38:30.216Z,29.09
2023-05-11T13:39:32.170Z,29.34
2023-05-11T13:40:35.062Z,29.99
2023-05-11T13:41:37.039Z,29.61
2023-05-11T13:42:39.019Z,29.29
2023-05-11T13:43:40.812Z,29.50
2023-05-11T13:44:42.675Z,29.39
2023-05-11T13:45:44.505Z,29.29
2023-05-11T13:46:46.413Z,29.84
2023-05-11T13:47:48.324Z,30.50
2023-05-11T13:48:50.637Z,29.80
2023-05-11T13:49:54.569Z,29.58
2023-05-11T13:50:56.368Z,30.04
2023-05-11T13:51:58.283Z,29.91
2023-05-11T13:53:00.200Z,30.35
2023-05-11T13:54:02.566Z,29.74
2023-05-11T13:55:05.352Z,30.44
2023-05-11T13:56:07.326Z,29.86
2023-05-11T13:57:09.221Z,30.12
2023-05-11T13:58:11.127Z,29.96
2023-05-11T13:59:13.037Z,29.96
2023-05-11T14:00:16.023Z,30.09
2023-05-11T14:01:17.877Z,30.15
2023-05-11T14:02:19.768Z,30.34
2023-05-11T14:03:23.419Z,29.49